sensor_id;sensor_type;location;lat;lon;timestamp;pressure;altitude;pressure_sealevel;temperature;humidity
14067;BME280;7108;42.684;23.350;2023-07-02T00:00:55;94708.31;;;20.27;100.00
14067;BME280;7108;42.684;23.350;2023-07-02T00:03:20;94726.06;;;20.35;100.00
14067;BME280;7108;42.684;23.350;2023-07-02T00:05:47;94716.75;;;20.32;100.00
14067;BME280;7108;42.684;23.350;2023-07-02T00:08:16;94707.88;;;20.28;100.00
14067;BME280;7108;42.684;23.350;2023-07-02T00:10:41;94716.53;;;20.27;100.00
14067;BME280;7108;42.684;23.350;2023-07-02T00:13:07;94710.16;;;20.30;100.00
14067;BME280;7108;42.684;23.350;2023-07-02T00:15:32;94704.03;;;20.26;100.00
14067;BME280;7108;42.684;23.350;2023-07-02T00:17:57;94717.19;;;20.31;100.00
14067;BME280;7108;42.684;23.350;2023-07-02T00:20:23;94688.66;;;20.16;100.00
14067;BME280;7108;42.684;23.350;2023-07-02T00:22:49;94702.84;;;20.27;100.00
14067;BME280;7108;42.684;23.350;2023-07-02T00:25:14;94701.72;;;20.24;100.00
14067;BME280;7108;42.684;23.350;2023-07-02T00:27:40;94694.22;;;20.12;100.00
14067;BME280;7108;42.684;23.350;2023-07-02T00:30:06;94699.69;;;20.12;100.00
14067;BME280;7108;42.684;23.350;2023-07-02T00:32:32;94712.13;;;20.01;100.00
14067;BME280;7108;42.684;23.350;2023-07-02T00:34:57;94720.97;;;19.89;100.00
14067;BME280;7108;42.684;23.350;2023-07-02T00:37:24;94720.50;;;19.94;100.00
14067;BME280;7108;42.684;23.350;2023-07-02T00:39:49;94711.22;;;19.88;100.00
14067;BME280;7108;42.684;23.350;2023-07-02T00:42:15;94725.97;;;19.94;100.00
14067;BME280;7108;42.684;23.350;2023-07-02T00:44:41;94724.75;;;19.95;100.00
14067;BME280;7108;42.684;23.350;2023-07-02T00:47:10;94731.44;;;19.94;100.00
14067;BME280;7108;42.684;23.350;2023-07-02T00:49:36;94730.91;;;19.99;100.00
14067;BME280;7108;42.684;23.350;2023-07-02T00:52:03;94737.31;;;20.08;100.00
14067;BME280;7108;42.684;23.350;2023-07-02T00:54:28;94742.00;;;20.08;100.00
14067;BME280;7108;42.684;23.350;2023-07-02T00:56:54;94735.94;;;20.00;100.00
14067;BME280;7108;42.684;23.350;2023-07-02T00:59:20;94719.94;;;19.83;100.00
14067;BME280;7108;42.684;23.350;2023-07-02T01:01:45;94720.22;;;19.88;100.00
14067;BME280;7108;42.684;23.350;2023-07-02T01:04:17;94714.03;;;19.84;100.00
14067;BME280;7108;42.684;23.350;2023-07-02T01:06:43;94728.22;;;19.79;100.00
14067;BME280;7108;42.684;23.350;2023-07-02T01:09:10;94716.78;;;19.69;100.00
14067;BME280;7108;42.684;23.350;2023-07-02T01:11:53;94729.03;;;19.80;100.00
14067;BME280;7108;42.684;23.350;2023-07-02T01:14:32;94733.69;;;19.79;100.00
14067;BME280;7108;42.684;23.350;2023-07-02T01:16:59;94720.53;;;19.74;100.00
14067;BME280;7108;42.684;23.350;2023-07-02T01:22:06;94733.63;;;19.83;100.00
14067;BME280;7108;42.684;23.350;2023-07-02T01:24:32;94724.22;;;19.84;100.00
14067;BME280;7108;42.684;23.350;2023-07-02T01:26:58;94730.44;;;19.84;100.00
14067;BME280;7108;42.684;23.350;2023-07-02T01:29:29;94728.06;;;19.86;100.00
14067;BME280;7108;42.684;23.350;2023-07-02T01:31:56;94730.44;;;19.84;100.00
14067;BME280;7108;42.684;23.350;2023-07-02T01:34:22;94716.03;;;19.84;100.00
14067;BME280;7108;42.684;23.350;2023-07-02T01:36:47;94710.03;;;19.89;100.00
14067;BME280;7108;42.684;23.350;2023-07-02T01:39:13;94684.84;;;19.81;100.00
14067;BME280;7108;42.684;23.350;2023-07-02T01:41:50;94707.25;;;19.92;100.00
14067;BME280;7108;42.684;23.350;2023-07-02T01:44:16;94704.84;;;19.94;100.00
14067;BME280;7108;42.684;23.350;2023-07-02T01:46:41;94704.22;;;19.87;100.00
14067;BME280;7108;42.684;23.350;2023-07-02T01:49:07;94696.88;;;19.84;100.00
14067;BME280;7108;42.684;23.350;2023-07-02T01:51:33;94716.34;;;19.86;100.00
14067;BME280;7108;42.684;23.350;2023-07-02T01:53:59;94711.06;;;19.79;100.00
14067;BME280;7108;42.684;23.350;2023-07-02T01:56:25;94697.91;;;19.74;100.00
14067;BME280;7108;42.684;23.350;2023-07-02T01:58:51;94693.56;;;19.61;100.00
14067;BME280;7108;42.684;23.350;2023-07-02T02:01:16;94685.59;;;19.50;100.00
14067;BME280;7108;42.684;23.350;2023-07-02T02:03:42;94692.97;;;19.53;100.00
14067;BME280;7108;42.684;23.350;2023-07-02T02:06:08;94692.09;;;19.40;100.00
14067;BME280;7108;42.684;23.350;2023-07-02T02:08:33;94694.22;;;19.49;100.00
14067;BME280;7108;42.684;23.350;2023-07-02T02:10:59;94675.09;;;19.33;100.00
14067;BME280;7108;42.684;23.350;2023-07-02T02:13:26;94681.13;;;19.24;100.00
14067;BME280;7108;42.684;23.350;2023-07-02T02:15:51;94699.75;;;19.29;100.00
14067;BME280;7108;42.684;23.350;2023-07-02T02:18:17;94690.19;;;19.21;100.00
14067;BME280;7108;42.684;23.350;2023-07-02T02:20:42;94714.28;;;19.26;100.00
14067;BME280;7108;42.684;23.350;2023-07-02T02:23:07;94714.13;;;19.33;100.00
14067;BME280;7108;42.684;23.350;2023-07-02T02:25:33;94700.97;;;19.28;100.00
14067;BME280;7108;42.684;23.350;2023-07-02T02:27:58;94694.56;;;19.35;100.00
14067;BME280;7108;42.684;23.350;2023-07-02T02:30:24;94691.84;;;19.35;100.00
14067;BME280;7108;42.684;23.350;2023-07-02T02:32:49;94680.91;;;19.35;100.00
14067;BME280;7108;42.684;23.350;2023-07-02T02:35:14;94689.28;;;19.44;100.00
14067;BME280;7108;42.684;23.350;2023-07-02T02:37:40;94685.78;;;19.43;100.00
14067;BME280;7108;42.684;23.350;2023-07-02T02:40:07;94688.16;;;19.41;100.00
14067;BME280;7108;42.684;23.350;2023-07-02T02:42:34;94688.94;;;19.42;100.00
14067;BME280;7108;42.684;23.350;2023-07-02T02:45:00;94683.72;;;19.47;100.00
14067;BME280;7108;42.684;23.350;2023-07-02T02:47:25;94686.38;;;19.35;100.00
14067;BME280;7108;42.684;23.350;2023-07-02T02:49:51;94691.66;;;19.26;100.00
14067;BME280;7108;42.684;23.350;2023-07-02T02:52:16;94679.94;;;19.25;100.00
14067;BME280;7108;42.684;23.350;2023-07-02T02:54:43;94698.13;;;19.32;100.00
14067;BME280;7108;42.684;23.350;2023-07-02T02:57:08;94687.81;;;19.23;100.00
14067;BME280;7108;42.684;23.350;2023-07-02T02:59:34;94702.75;;;19.35;100.00
14067;BME280;7108;42.684;23.350;2023-07-02T03:01:59;94693.03;;;19.34;100.00
14067;BME280;7108;42.684;23.350;2023-07-02T03:04:24;94702.75;;;19.35;100.00
14067;BME280;7108;42.684;23.350;2023-07-02T03:06:51;94696.13;;;19.36;100.00
14067;BME280;7108;42.684;23.350;2023-07-02T03:09:18;94700.47;;;19.33;100.00
14067;BME280;7108;42.684;23.350;2023-07-02T03:11:44;94694.56;;;19.35;100.00
14067;BME280;7108;42.684;23.350;2023-07-02T03:14:10;94689.44;;;19.37;100.00
14067;BME280;7108;42.684;23.350;2023-07-02T03:16:36;94687.13;;;19.35;100.00
14067;BME280;7108;42.684;23.350;2023-07-02T03:19:01;94664.16;;;19.33;100.00
14067;BME280;7108;42.684;23.350;2023-07-02T03:21:28;94685.28;;;19.48;100.00
14067;BME280;7108;42.684;23.350;2023-07-02T03:23:55;94665.47;;;19.44;100.00
14067;BME280;7108;42.684;23.350;2023-07-02T03:26:20;94689.34;;;19.56;100.00
14067;BME280;7108;42.684;23.350;2023-07-02T03:28:46;94693.63;;;19.57;100.00
14067;BME280;7108;42.684;23.350;2023-07-02T03:31:12;94706.78;;;19.62;100.00
14067;BME280;7108;42.684;23.350;2023-07-02T03:33:37;94723.88;;;19.66;100.00
14067;BME280;7108;42.684;23.350;2023-07-02T03:36:03;94715.75;;;19.63;100.00
14067;BME280;7108;42.684;23.350;2023-07-02T03:38:28;94719.19;;;19.67;100.00
14067;BME280;7108;42.684;23.350;2023-07-02T03:40:54;94689.78;;;19.55;100.00
14067;BME280;7108;42.684;23.350;2023-07-02T03:43:19;94717.56;;;19.69;100.00
14067;BME280;7108;42.684;23.350;2023-07-02T03:45:45;94719.00;;;19.73;100.00
14067;BME280;7108;42.684;23.350;2023-07-02T03:48:10;94711.41;;;19.65;100.00
14067;BME280;7108;42.684;23.350;2023-07-02T03:50:35;94712.53;;;19.68;100.00
14067;BME280;7108;42.684;23.350;2023-07-02T03:53:01;94702.44;;;19.65;100.00
14067;BME280;7108;42.684;23.350;2023-07-02T03:55:26;94704.22;;;19.71;100.00
14067;BME280;7108;42.684;23.350;2023-07-02T03:57:52;94693.88;;;19.63;100.00
14067;BME280;7108;42.684;23.350;2023-07-02T04:00:17;94699.63;;;19.52;100.00
14067;BME280;7108;42.684;23.350;2023-07-02T04:02:43;94709.69;;;19.55;100.00
14067;BME280;7108;42.684;23.350;2023-07-02T04:05:08;94712.34;;;19.59;100.00
14067;BME280;7108;42.684;23.350;2023-07-02T04:07:34;94700.72;;;19.39;100.00
14067;BME280;7108;42.684;23.350;2023-07-02T04:09:59;94719.41;;;19.40;100.00
14067;BME280;7108;42.684;23.350;2023-07-02T04:12:26;94733.84;;;19.41;100.00
14067;BME280;7108;42.684;23.350;2023-07-02T04:14:51;94714.44;;;19.35;100.00
14067;BME280;7108;42.684;23.350;2023-07-02T04:17:16;94722.13;;;19.40;100.00
14067;BME280;7108;42.684;23.350;2023-07-02T04:19:42;94738.81;;;19.46;100.00
14067;BME280;7108;42.684;23.350;2023-07-02T04:22:07;94741.88;;;19.48;100.00
14067;BME280;7108;42.684;23.350;2023-07-02T04:24:33;94730.78;;;19.39;100.00
14067;BME280;7108;42.684;23.350;2023-07-02T04:26:58;94750.78;;;19.52;100.00
14067;BME280;7108;42.684;23.350;2023-07-02T04:29:25;94745.66;;;19.54;100.00
14067;BME280;7108;42.684;23.350;2023-07-02T04:31:50;94745.72;;;19.50;100.00
14067;BME280;7108;42.684;23.350;2023-07-02T04:34:15;94758.03;;;19.58;100.00
14067;BME280;7108;42.684;23.350;2023-07-02T04:36:41;94760.34;;;19.60;100.00
14067;BME280;7108;42.684;23.350;2023-07-02T04:39:08;94754.00;;;19.63;100.00
14067;BME280;7108;42.684;23.350;2023-07-02T04:41:34;94763.34;;;19.65;100.00
14067;BME280;7108;42.684;23.350;2023-07-02T04:43:59;94765.31;;;19.65;100.00
14067;BME280;7108;42.684;23.350;2023-07-02T04:46:25;94776.59;;;19.67;100.00
14067;BME280;7108;42.684;23.350;2023-07-02T04:48:51;94773.06;;;19.66;100.00
14067;BME280;7108;42.684;23.350;2023-07-02T04:51:16;94770.19;;;19.73;100.00
14067;BME280;7108;42.684;23.350;2023-07-02T04:53:42;94767.88;;;19.72;100.00
14067;BME280;7108;42.684;23.350;2023-07-02T04:56:07;94785.66;;;19.79;100.00
14067;BME280;7108;42.684;23.350;2023-07-02T04:58:32;94780.97;;;19.80;100.00
14067;BME280;7108;42.684;23.350;2023-07-02T05:00:58;94780.63;;;19.78;100.00
14067;BME280;7108;42.684;23.350;2023-07-02T05:03:23;94777.97;;;19.74;100.00
14067;BME280;7108;42.684;23.350;2023-07-02T05:05:49;94766.94;;;19.62;100.00
14067;BME280;7108;42.684;23.350;2023-07-02T05:08:14;94784.00;;;19.66;100.00
14067;BME280;7108;42.684;23.350;2023-07-02T05:10:40;94779.84;;;19.62;100.00
14067;BME280;7108;42.684;23.350;2023-07-02T05:13:05;94798.28;;;19.73;100.00
14067;BME280;7108;42.684;23.350;2023-07-02T05:15:30;94794.63;;;19.80;100.00
14067;BME280;7108;42.684;23.350;2023-07-02T05:17:56;94789.94;;;19.80;100.00
14067;BME280;7108;42.684;23.350;2023-07-02T05:20:21;94786.00;;;19.81;100.00
14067;BME280;7108;42.684;23.350;2023-07-02T05:22:47;94793.41;;;19.81;100.00
14067;BME280;7108;42.684;23.350;2023-07-02T05:25:12;94796.06;;;19.84;100.00
14067;BME280;7108;42.684;23.350;2023-07-02T05:27:38;94797.78;;;19.78;100.00
14067;BME280;7108;42.684;23.350;2023-07-02T05:30:03;94791.19;;;19.76;100.00
14067;BME280;7108;42.684;23.350;2023-07-02T05:32:29;94784.97;;;19.75;100.00
14067;BME280;7108;42.684;23.350;2023-07-02T05:34:54;94771.56;;;19.65;100.00
14067;BME280;7108;42.684;23.350;2023-07-02T05:37:20;94784.63;;;19.73;100.00
14067;BME280;7108;42.684;23.350;2023-07-02T05:39:46;94778.91;;;19.68;100.00
14067;BME280;7108;42.684;23.350;2023-07-02T05:42:12;94779.66;;;19.69;100.00
14067;BME280;7108;42.684;23.350;2023-07-02T05:44:37;94807.28;;;19.74;100.00
14067;BME280;7108;42.684;23.350;2023-07-02T05:47:03;94801.00;;;19.73;100.00
14067;BME280;7108;42.684;23.350;2023-07-02T05:49:28;94786.59;;;19.73;100.00
14067;BME280;7108;42.684;23.350;2023-07-02T05:51:54;94787.19;;;19.80;100.00
14067;BME280;7108;42.684;23.350;2023-07-02T05:54:19;94805.25;;;19.94;100.00
14067;BME280;7108;42.684;23.350;2023-07-02T05:56:45;94798.09;;;20.00;100.00
14067;BME280;7108;42.684;23.350;2023-07-02T05:59:10;94800.63;;;20.07;100.00
14067;BME280;7108;42.684;23.350;2023-07-02T06:01:37;94790.91;;;20.06;100.00
14067;BME280;7108;42.684;23.350;2023-07-02T06:04:03;94793.53;;;20.09;100.00
14067;BME280;7108;42.684;23.350;2023-07-02T06:06:28;94779.88;;;20.09;100.00
14067;BME280;7108;42.684;23.350;2023-07-02T06:08:54;94791.44;;;20.17;100.00
14067;BME280;7108;42.684;23.350;2023-07-02T06:11:19;94770.81;;;20.12;100.00
14067;BME280;7108;42.684;23.350;2023-07-02T06:13:44;94757.13;;;20.12;100.00
14067;BME280;7108;42.684;23.350;2023-07-02T06:16:10;94785.09;;;20.20;100.00
14067;BME280;7108;42.684;23.350;2023-07-02T06:18:35;94786.94;;;20.23;100.00
14067;BME280;7108;42.684;23.350;2023-07-02T06:21:01;94758.59;;;20.17;100.00
14067;BME280;7108;42.684;23.350;2023-07-02T06:23:26;94767.91;;;20.19;100.00
14067;BME280;7108;42.684;23.350;2023-07-02T06:25:52;94760.81;;;20.22;100.00
14067;BME280;7108;42.684;23.350;2023-07-02T06:28:24;94760.19;;;20.30;100.00
14067;BME280;7108;42.684;23.350;2023-07-02T06:30:49;94748.03;;;20.31;100.00
14067;BME280;7108;42.684;23.350;2023-07-02T06:33:15;94753.78;;;20.37;100.00
14067;BME280;7108;42.684;23.350;2023-07-02T06:35:40;94758.19;;;20.46;100.00
14067;BME280;7108;42.684;23.350;2023-07-02T06:38:05;94755.56;;;20.43;100.00
14067;BME280;7108;42.684;23.350;2023-07-02T06:40:31;94748.22;;;20.40;100.00
14067;BME280;7108;42.684;23.350;2023-07-02T06:42:56;94744.97;;;20.29;100.00
14067;BME280;7108;42.684;23.350;2023-07-02T06:45:22;94760.84;;;20.50;100.00
14067;BME280;7108;42.684;23.350;2023-07-02T06:47:47;94762.19;;;20.58;100.00
14067;BME280;7108;42.684;23.350;2023-07-02T06:50:12;94759.78;;;20.60;100.00
14067;BME280;7108;42.684;23.350;2023-07-02T06:52:38;94763.28;;;20.60;100.00
14067;BME280;7108;42.684;23.350;2023-07-02T06:55:03;94752.28;;;20.48;100.00
14067;BME280;7108;42.684;23.350;2023-07-02T06:57:29;94758.88;;;20.50;100.00
14067;BME280;7108;42.684;23.350;2023-07-02T06:59:58;94743.63;;;20.49;100.00
14067;BME280;7108;42.684;23.350;2023-07-02T07:02:24;94746.25;;;20.41;100.00
14067;BME280;7108;42.684;23.350;2023-07-02T07:04:50;94756.22;;;20.47;100.00
14067;BME280;7108;42.684;23.350;2023-07-02T07:07:15;94757.09;;;20.44;100.00
14067;BME280;7108;42.684;23.350;2023-07-02T07:09:40;94760.72;;;20.53;100.00
14067;BME280;7108;42.684;23.350;2023-07-02T07:12:06;94754.41;;;20.56;100.00
14067;BME280;7108;42.684;23.350;2023-07-02T07:14:32;94745.84;;;20.54;100.00
14067;BME280;7108;42.684;23.350;2023-07-02T07:16:57;94756.81;;;20.54;100.00
14067;BME280;7108;42.684;23.350;2023-07-02T07:19:23;94748.41;;;20.61;100.00
14067;BME280;7108;42.684;23.350;2023-07-02T07:21:48;94751.63;;;20.72;100.00
14067;BME280;7108;42.684;23.350;2023-07-02T07:24:13;94746.69;;;20.67;100.00
14067;BME280;7108;42.684;23.350;2023-07-02T07:26:39;94762.75;;;20.81;100.00
14067;BME280;7108;42.684;23.350;2023-07-02T07:29:04;94743.75;;;20.74;100.00
14067;BME280;7108;42.684;23.350;2023-07-02T07:31:30;94741.41;;;20.60;100.00
14067;BME280;7108;42.684;23.350;2023-07-02T07:33:55;94747.34;;;20.71;100.00
14067;BME280;7108;42.684;23.350;2023-07-02T07:36:20;94747.94;;;20.79;100.00
14067;BME280;7108;42.684;23.350;2023-07-02T07:38:46;94747.09;;;20.82;100.00
14067;BME280;7108;42.684;23.350;2023-07-02T07:41:11;94741.53;;;20.69;100.00
14067;BME280;7108;42.684;23.350;2023-07-02T07:43:37;94738.63;;;20.76;100.00
14067;BME280;7108;42.684;23.350;2023-07-02T07:46:02;94741.38;;;20.76;100.00
14067;BME280;7108;42.684;23.350;2023-07-02T07:48:27;94741.13;;;20.71;100.00
14067;BME280;7108;42.684;23.350;2023-07-02T07:50:53;94738.47;;;20.67;100.00
14067;BME280;7108;42.684;23.350;2023-07-02T07:53:18;94743.66;;;20.78;100.00
14067;BME280;7108;42.684;23.350;2023-07-02T07:55:44;94751.25;;;20.86;100.00
14067;BME280;7108;42.684;23.350;2023-07-02T07:58:09;94752.47;;;20.85;100.00
14067;BME280;7108;42.684;23.350;2023-07-02T08:00:35;94758.09;;;20.94;100.00
14067;BME280;7108;42.684;23.350;2023-07-02T08:03:01;94754.13;;;20.95;100.00
14067;BME280;7108;42.684;23.350;2023-07-02T08:05:29;94753.50;;;21.04;100.00
14067;BME280;7108;42.684;23.350;2023-07-02T08:07:54;94756.03;;;21.10;100.00
14067;BME280;7108;42.684;23.350;2023-07-02T08:10:20;94752.41;;;21.13;100.00
14067;BME280;7108;42.684;23.350;2023-07-02T08:12:45;94750.22;;;21.21;100.00
14067;BME280;7108;42.684;23.350;2023-07-02T08:15:12;94764.28;;;21.35;100.00
14067;BME280;7108;42.684;23.350;2023-07-02T08:17:38;94753.13;;;21.30;100.00
14067;BME280;7108;42.684;23.350;2023-07-02T08:20:04;94750.81;;;21.28;100.00
14067;BME280;7108;42.684;23.350;2023-07-02T08:22:30;94743.56;;;21.22;100.00
14067;BME280;7108;42.684;23.350;2023-07-02T08:24:55;94755.31;;;21.35;100.00
14067;BME280;7108;42.684;23.350;2023-07-02T08:27:21;94736.22;;;21.19;100.00
14067;BME280;7108;42.684;23.350;2023-07-02T08:29:47;94746.97;;;21.26;100.00
14067;BME280;7108;42.684;23.350;2023-07-02T08:32:13;94740.06;;;21.21;100.00
14067;BME280;7108;42.684;23.350;2023-07-02T08:34:38;94750.38;;;21.30;100.00
14067;BME280;7108;42.684;23.350;2023-07-02T08:37:04;94741.06;;;21.40;100.00
14067;BME280;7108;42.684;23.350;2023-07-02T08:39:29;94729.56;;;21.45;100.00
14067;BME280;7108;42.684;23.350;2023-07-02T08:41:55;94731.84;;;21.46;100.00
14067;BME280;7108;42.684;23.350;2023-07-02T08:44:21;94739.47;;;21.55;100.00
14067;BME280;7108;42.684;23.350;2023-07-02T08:46:47;94738.16;;;21.59;100.00
14067;BME280;7108;42.684;23.350;2023-07-02T08:49:16;94737.25;;;21.62;100.00
14067;BME280;7108;42.684;23.350;2023-07-02T08:51:44;94729.59;;;21.70;100.00
14067;BME280;7108;42.684;23.350;2023-07-02T08:54:10;94736.06;;;21.63;100.00
14067;BME280;7108;42.684;23.350;2023-07-02T08:56:36;94735.72;;;21.61;100.00
14067;BME280;7108;42.684;23.350;2023-07-02T08:59:01;94727.84;;;21.63;100.00
14067;BME280;7108;42.684;23.350;2023-07-02T09:01:26;94724.00;;;21.61;100.00
14067;BME280;7108;42.684;23.350;2023-07-02T09:03:58;94730.34;;;21.82;100.00
14067;BME280;7108;42.684;23.350;2023-07-02T09:06:24;94726.59;;;21.89;100.00
14067;BME280;7108;42.684;23.350;2023-07-02T09:08:49;94722.97;;;21.92;100.00
14067;BME280;7108;42.684;23.350;2023-07-02T09:11:15;94729.28;;;22.14;100.00
14067;BME280;7108;42.684;23.350;2023-07-02T09:16:33;94721.41;;;22.16;100.00
14067;BME280;7108;42.684;23.350;2023-07-02T09:19:05;94729.72;;;22.25;100.00
14067;BME280;7108;42.684;23.350;2023-07-02T09:21:45;94719.41;;;22.29;100.00
14067;BME280;7108;42.684;23.350;2023-07-02T09:24:19;94716.31;;;22.27;100.00
14067;BME280;7108;42.684;23.350;2023-07-02T09:26:49;94706.66;;;22.35;100.00
14067;BME280;7108;42.684;23.350;2023-07-02T09:29:26;94712.66;;;22.42;100.00
14067;BME280;7108;42.684;23.350;2023-07-02T09:32:03;94708.25;;;22.44;100.00
14067;BME280;7108;42.684;23.350;2023-07-02T09:34:32;94709.22;;;22.50;100.00
14067;BME280;7108;42.684;23.350;2023-07-02T09:36:59;94707.75;;;22.58;100.00
14067;BME280;7108;42.684;23.350;2023-07-02T09:39:29;94701.19;;;22.56;100.00
14067;BME280;7108;42.684;23.350;2023-07-02T09:41:56;94703.81;;;22.59;100.00
14067;BME280;7108;42.684;23.350;2023-07-02T09:44:28;94703.69;;;22.63;100.00
14067;BME280;7108;42.684;23.350;2023-07-02T09:49:24;94700.25;;;22.71;100.00
14067;BME280;7108;42.684;23.350;2023-07-02T09:51:50;94704.97;;;22.71;100.00
14067;BME280;7108;42.684;23.350;2023-07-02T09:54:16;94704.25;;;22.79;100.00
14067;BME280;7108;42.684;23.350;2023-07-02T09:56:45;94699.09;;;22.81;100.00
14067;BME280;7108;42.684;23.350;2023-07-02T09:59:11;94697.88;;;22.82;100.00
14067;BME280;7108;42.684;23.350;2023-07-02T10:01:37;94699.72;;;22.85;100.00
14067;BME280;7108;42.684;23.350;2023-07-02T10:04:16;94693.66;;;22.90;100.00
14067;BME280;7108;42.684;23.350;2023-07-02T10:06:54;94693.53;;;22.94;100.00
14067;BME280;7108;42.684;23.350;2023-07-02T10:09:33;94680.81;;;22.87;100.00
14067;BME280;7108;42.684;23.350;2023-07-02T10:11:59;94686.81;;;22.95;100.00
14067;BME280;7108;42.684;23.350;2023-07-02T10:14:24;94671.25;;;22.92;100.00
14067;BME280;7108;42.684;23.350;2023-07-02T10:16:53;94682.22;;;23.13;100.00
14067;BME280;7108;42.684;23.350;2023-07-02T10:19:20;94660.59;;;23.24;100.00
14067;BME280;7108;42.684;23.350;2023-07-02T10:21:46;94662.53;;;23.54;100.00
14067;BME280;7108;42.684;23.350;2023-07-02T10:24:16;94658.69;;;23.81;100.00
14067;BME280;7108;42.684;23.350;2023-07-02T10:26:59;94657.03;;;24.02;100.00
14067;BME280;7108;42.684;23.350;2023-07-02T10:29:27;94650.78;;;24.19;100.00
14067;BME280;7108;42.684;23.350;2023-07-02T10:31:57;94630.75;;;24.28;100.00
14067;BME280;7108;42.684;23.350;2023-07-02T10:34:33;94640.44;;;24.50;100.00
14067;BME280;7108;42.684;23.350;2023-07-02T10:37:02;94639.34;;;24.65;100.00
14067;BME280;7108;42.684;23.350;2023-07-02T10:39:32;94642.97;;;24.80;100.00
14067;BME280;7108;42.684;23.350;2023-07-02T10:42:23;94649.38;;;24.95;100.00
14067;BME280;7108;42.684;23.350;2023-07-02T10:44:52;94645.84;;;25.04;100.00
14067;BME280;7108;42.684;23.350;2023-07-02T10:47:18;94635.28;;;25.11;100.00
14067;BME280;7108;42.684;23.350;2023-07-02T10:49:44;94631.41;;;25.17;100.00
14067;BME280;7108;42.684;23.350;2023-07-02T10:52:10;94638.91;;;25.26;100.00
14067;BME280;7108;42.684;23.350;2023-07-02T10:54:43;94636.56;;;25.42;100.00
14067;BME280;7108;42.684;23.350;2023-07-02T10:57:18;94632.69;;;25.49;100.00
14067;BME280;7108;42.684;23.350;2023-07-02T10:59:47;94629.78;;;25.52;100.00
14067;BME280;7108;42.684;23.350;2023-07-02T11:02:14;94622.25;;;25.53;100.00
14067;BME280;7108;42.684;23.350;2023-07-02T11:04:39;94631.53;;;25.73;100.00
14067;BME280;7108;42.684;23.350;2023-07-02T11:07:05;94629.44;;;25.91;100.00
14067;BME280;7108;42.684;23.350;2023-07-02T11:09:31;94619.38;;;26.03;100.00
14067;BME280;7108;42.684;23.350;2023-07-02T11:11:59;94617.91;;;26.16;100.00
14067;BME280;7108;42.684;23.350;2023-07-02T11:14:32;94621.47;;;26.31;100.00
14067;BME280;7108;42.684;23.350;2023-07-02T11:16:59;94621.16;;;26.29;100.00
14067;BME280;7108;42.684;23.350;2023-07-02T11:19:27;94624.84;;;26.35;100.00
14067;BME280;7108;42.684;23.350;2023-07-02T11:21:54;94625.63;;;26.27;100.00
14067;BME280;7108;42.684;23.350;2023-07-02T11:24:27;94620.66;;;26.16;100.00
14067;BME280;7108;42.684;23.350;2023-07-02T11:26:54;94630.09;;;26.10;100.00
14067;BME280;7108;42.684;23.350;2023-07-02T11:29:20;94608.91;;;26.07;100.00
14067;BME280;7108;42.684;23.350;2023-07-02T11:31:46;94613.00;;;26.35;100.00
14067;BME280;7108;42.684;23.350;2023-07-02T11:34:16;94617.81;;;26.11;100.00
14067;BME280;7108;42.684;23.350;2023-07-02T11:36:41;94628.00;;;25.73;100.00
14067;BME280;7108;42.684;23.350;2023-07-02T11:39:07;94635.50;;;25.40;100.00
14067;BME280;7108;42.684;23.350;2023-07-02T11:41:39;94640.19;;;24.98;100.00
14067;BME280;7108;42.684;23.350;2023-07-02T11:44:06;94640.59;;;24.47;100.00
14067;BME280;7108;42.684;23.350;2023-07-02T11:46:31;94625.25;;;24.10;100.00
14067;BME280;7108;42.684;23.350;2023-07-02T11:48:57;94638.13;;;24.57;100.00
14067;BME280;7108;42.684;23.350;2023-07-02T11:51:22;94629.19;;;24.89;100.00
14067;BME280;7108;42.684;23.350;2023-07-02T11:53:48;94617.38;;;24.98;100.00
14067;BME280;7108;42.684;23.350;2023-07-02T11:56:13;94627.75;;;25.20;100.00
14067;BME280;7108;42.684;23.350;2023-07-02T11:58:39;94635.34;;;25.43;100.00
14067;BME280;7108;42.684;23.350;2023-07-02T12:01:05;94613.38;;;25.49;100.00
14067;BME280;7108;42.684;23.350;2023-07-02T12:03:30;94628.53;;;25.53;100.00
14067;BME280;7108;42.684;23.350;2023-07-02T12:05:56;94637.91;;;25.47;100.00
14067;BME280;7108;42.684;23.350;2023-07-02T12:08:22;94647.97;;;25.26;100.00
14067;BME280;7108;42.684;23.350;2023-07-02T12:10:47;94648.94;;;24.97;100.00
14067;BME280;7108;42.684;23.350;2023-07-02T12:13:13;94652.28;;;25.01;100.00
14067;BME280;7108;42.684;23.350;2023-07-02T12:15:38;94646.97;;;24.79;100.00
14067;BME280;7108;42.684;23.350;2023-07-02T12:18:04;94651.13;;;24.39;100.00
14067;BME280;7108;42.684;23.350;2023-07-02T12:20:29;94652.03;;;24.18;100.00
14067;BME280;7108;42.684;23.350;2023-07-02T12:22:56;94661.03;;;24.10;100.00
14067;BME280;7108;42.684;23.350;2023-07-02T12:25:21;94644.47;;;23.74;100.00
14067;BME280;7108;42.684;23.350;2023-07-02T12:27:46;94660.09;;;23.56;100.00
14067;BME280;7108;42.684;23.350;2023-07-02T12:30:12;94671.81;;;23.38;100.00
14067;BME280;7108;42.684;23.350;2023-07-02T12:32:42;94658.19;;;23.35;100.00
14067;BME280;7108;42.684;23.350;2023-07-02T12:35:09;94664.09;;;23.24;100.00
14067;BME280;7108;42.684;23.350;2023-07-02T12:37:34;94668.06;;;23.23;100.00
14067;BME280;7108;42.684;23.350;2023-07-02T12:40:00;94683.44;;;23.12;100.00
14067;BME280;7108;42.684;23.350;2023-07-02T12:42:26;94681.47;;;23.13;100.00
14067;BME280;7108;42.684;23.350;2023-07-02T12:44:51;94667.41;;;23.11;100.00
14067;BME280;7108;42.684;23.350;2023-07-02T12:47:17;94673.97;;;23.13;100.00
14067;BME280;7108;42.684;23.350;2023-07-02T12:49:43;94673.78;;;23.08;100.00
14067;BME280;7108;42.684;23.350;2023-07-02T12:52:08;94668.47;;;23.13;100.00
14067;BME280;7108;42.684;23.350;2023-07-02T12:54:34;94672.03;;;23.22;100.00